Airfield :
LOGIN :

Register | Disclaimer

   EN    FR    IT 

 










Legend :    VFR   Marginal VFR   IFR   Intensive IFR   Very Intensive IFR
Visi :
Ceiling :
>= 8 km
>= 3000ft
5 to 8 km
1000 to 3000 ft
1500m to 5 km
500 to 1000 ft
800 to 1500m
200 to 500 ft
< 800m
< 200 ft
Symbols :   Thunderstorms  Fog  Heavy snow  Heavy precipitations  Wind > 20 kt
SIGMETs :     Misc.  Thunderstorms  Icing  Turbulence  Mountain Waves  Volcanic Ashes







- Airport Elevation : 80 ft
- IATA code : LPL
- Download approach charts


EGGP - Liverpool John Lennon

CURRENT METAR :
  • 160450Z 31005KT 9999 FEW042 03/01 Q1016

EXPIRED METARs :
  • 160420Z 31005KT 280V340 CAVOK 03/01 Q1015
  • 160350Z 32007KT CAVOK 03/01 Q1015
  • 160320Z 33008KT CAVOK 03/02 Q1015
  • 160250Z 34005KT 310V020 CAVOK 03/02 Q1015
  • 160220Z 34007KT 9999 FEW039 04/02 Q1014

TAF TAF EGGP
Valid from the 16 at 00:00 until the 17 at 00:00 UTC


152304Z 1600/1624 VRB03KT 9999 FEW030
TEMPO 1600/1608 31010KT
TEMPO 1607/1624 7000 RA BKN014
PROB30
TEMPO 1613/1620 3000 RADZ BKN005
ATIS : +44 151 907 2000 (option 5 or ext 5150)
Met : +44 871 750 5150
No reported NOTAMs for that airfield.



MET'MAP, your aeronautical weather chart ! - Copyright ORBIFLY December 2007 - Disclaimer

ORBIFLY MET'MAP TEAM :

Programming & Development : Alexandra Zaïnal
Concept & Development : Baudouin d'Aumeries
Co-Development & Prog : Marc-Olivier Méhu
Technical & hardware support : Manuel Goepfert

Contact : metmap@orbifly.com




SOURCES & CREDITS :

   NOAA